Time;durP1;ratioP1;P1;durP2;ratioP2;P2;SDS_P1;SDS_P2;PMS_P1;PMS_P2;Temp;Humidity;BMP_temperature;BMP_pressure;BME280_temperature;BME280_humidity;BME280_pressure;Samples;Min_cycle;Max_cycle;Signal;HPM_P1;HPM_P2
2022/11/14 00:00:22;;;;;;;67.32;40.70;;;;;;;;;;5114241;28;20015;-70
2022/11/14 00:03:08;;;;;;;71.63;39.53;;;;;;;;;;5114935;28;20025;-70
2022/11/14 00:05:53;;;;;;;67.30;38.85;;;;;;;;;;5099099;28;20027;-70
2022/11/14 00:08:39;;;;;;;62.55;37.08;;;;;;;;;;5114590;28;20038;-71
2022/11/14 00:11:25;;;;;;;62.63;37.28;;;;;;;;;;5114526;28;20035;-72
2022/11/14 00:14:10;;;;;;;68.30;37.83;;;;;;;;;;5114593;28;20070;-71
2022/11/14 00:16:56;;;;;;;63.00;36.88;;;;;;;;;;5115086;28;20444;-71
2022/11/14 00:19:42;;;;;;;57.33;35.20;;;;;;;;;;5114005;28;20023;-71
2022/11/14 00:22:27;;;;;;;66.43;36.63;;;;;;;;;;5114773;28;20024;-71
2022/11/14 00:25:13;;;;;;;64.07;34.22;;;;;;;;;;5114014;28;20054;-71
2022/11/14 00:27:58;;;;;;;47.95;29.85;;;;;;;;;;5116263;28;20106;-71
2022/11/14 00:30:47;;;;;;;50.35;30.13;;;;;;;;;;5118339;28;20464;-71
2022/11/14 00:33:33;;;;;;;47.78;29.38;;;;;;;;;;5118744;28;20028;-72
2022/11/14 00:36:19;;;;;;;53.20;30.73;;;;;;;;;;5118020;28;20131;-71
2022/11/14 00:39:04;;;;;;;49.88;28.52;;;;;;;;;;5117887;28;20386;-71
2022/11/14 00:41:50;;;;;;;46.67;27.38;;;;;;;;;;5118398;28;20152;-71
2022/11/14 00:44:35;;;;;;;40.28;24.13;;;;;;;;;;5118542;28;20089;-71
2022/11/14 00:47:21;;;;;;;40.60;24.13;;;;;;;;;;5118601;28;20018;-71
2022/11/14 00:50:07;;;;;;;39.45;23.67;;;;;;;;;;5103083;28;20023;-71
2022/11/14 00:52:52;;;;;;;35.47;22.00;;;;;;;;;;5117475;28;20024;-70
2022/11/14 00:55:38;;;;;;;39.63;23.33;;;;;;;;;;5118446;28;20525;-70
2022/11/14 00:58:24;;;;;;;44.40;24.35;;;;;;;;;;5117893;28;20042;-71
2022/11/14 01:01:09;;;;;;;36.50;22.60;;;;;;;;;;5118583;28;20030;-71
2022/11/14 01:03:55;;;;;;;38.95;22.48;;;;;;;;;;5117251;28;20041;-71
2022/11/14 01:06:40;;;;;;;36.53;22.50;;;;;;;;;;5116695;28;20115;-70
2022/11/14 01:09:26;;;;;;;41.92;23.95;;;;;;;;;;5117763;28;20024;-70
2022/11/14 01:12:11;;;;;;;42.38;24.10;;;;;;;;;;5117294;28;20015;-72
2022/11/14 01:14:57;;;;;;;45.58;25.10;;;;;;;;;;5117355;28;20019;-71
2022/11/14 01:17:43;;;;;;;39.90;23.23;;;;;;;;;;5103224;28;20098;-70
2022/11/14 01:20:28;;;;;;;44.90;24.60;;;;;;;;;;5117283;28;20517;-70
2022/11/14 01:23:15;;;;;;;42.88;24.08;;;;;;;;;;5117549;28;20055;-71
2022/11/14 01:26:02;;;;;;;41.65;23.70;;;;;;;;;;5117378;28;20016;-71
2022/11/14 01:28:47;;;;;;;43.60;24.25;;;;;;;;;;5102213;28;20042;-71
2022/11/14 01:31:33;;;;;;;41.90;24.35;;;;;;;;;;5102523;28;20488;-71
2022/11/14 01:34:19;;;;;;;42.05;23.92;;;;;;;;;;5116322;28;20023;-70
2022/11/14 01:37:04;;;;;;;45.65;26.17;;;;;;;;;;5101814;28;20063;-72
2022/11/14 01:39:50;;;;;;;48.17;26.17;;;;;;;;;;5100723;28;20428;-71
2022/11/14 01:42:35;;;;;;;52.83;28.17;;;;;;;;;;5102492;28;20030;-71
2022/11/14 01:45:39;;;;;;;54.20;30.10;;;;;;;;;;5117376;28;20077;-70
2022/11/14 01:48:27;;;;;;;53.97;29.23;;;;;;;;;;5102764;28;20329;-70
2022/11/14 01:51:31;;;;;;;53.45;29.75;;;;;;;;;;5102657;28;20470;-72
2022/11/14 01:54:23;;;;;;;55.72;28.60;;;;;;;;;;5102576;28;20034;-70
2022/11/14 01:57:09;;;;;;;54.40;30.17;;;;;;;;;;5101790;28;20016;-70
2022/11/14 01:59:56;;;;;;;57.30;30.42;;;;;;;;;;5101371;28;20035;-71
2022/11/14 02:02:42;;;;;;;55.40;28.67;;;;;;;;;;5116939;28;20374;-71
2022/11/14 02:05:28;;;;;;;53.83;29.15;;;;;;;;;;5116661;28;20034;-71
2022/11/14 02:08:14;;;;;;;51.78;28.95;;;;;;;;;;5117378;28;20026;-71
2022/11/14 02:11:00;;;;;;;65.45;29.67;;;;;;;;;;5101726;28;20023;-71
2022/11/14 02:13:46;;;;;;;55.13;29.42;;;;;;;;;;5116517;28;20398;-72
2022/11/14 02:16:31;;;;;;;61.13;30.30;;;;;;;;;;5101685;28;20026;-71
2022/11/14 02:19:17;;;;;;;55.17;28.40;;;;;;;;;;5117081;28;20030;-71
2022/11/14 02:22:02;;;;;;;56.05;29.42;;;;;;;;;;5116512;28;20034;-71
2022/11/14 02:24:48;;;;;;;57.65;29.98;;;;;;;;;;5116558;28;20057;-71
2022/11/14 02:27:34;;;;;;;51.22;28.65;;;;;;;;;;5116071;28;20019;-71
2022/11/14 02:30:21;;;;;;;54.67;29.13;;;;;;;;;;5115163;28;20047;-71
2022/11/14 02:33:07;;;;;;;53.03;29.80;;;;;;;;;;5116378;28;20066;-71
2022/11/14 02:35:52;;;;;;;59.38;30.05;;;;;;;;;;5116301;28;20019;-72
2022/11/14 02:38:38;;;;;;;51.97;28.55;;;;;;;;;;5115921;28;20418;-72
2022/11/14 02:41:23;;;;;;;54.10;30.48;;;;;;;;;;5116197;28;20020;-71
2022/11/14 02:44:09;;;;;;;52.72;30.35;;;;;;;;;;5115524;28;20023;-70
2022/11/14 02:46:55;;;;;;;55.17;30.40;;;;;;;;;;5100720;28;20022;-71
2022/11/14 02:49:40;;;;;;;59.42;31.35;;;;;;;;;;5115559;28;20520;-71
2022/11/14 02:52:26;;;;;;;63.50;32.00;;;;;;;;;;5115654;28;20024;-71
2022/11/14 02:55:11;;;;;;;60.95;32.33;;;;;;;;;;5115298;28;20016;-71
2022/11/14 02:57:57;;;;;;;53.53;29.35;;;;;;;;;;5115825;28;20038;-72
2022/11/14 03:00:42;;;;;;;67.18;33.60;;;;;;;;;;5115130;28;20027;-71
2022/11/14 03:03:28;;;;;;;54.17;28.70;;;;;;;;;;5115752;28;20022;-71
2022/11/14 03:06:14;;;;;;;58.85;30.67;;;;;;;;;;5115069;28;20121;-71
2022/11/14 03:08:59;;;;;;;60.42;32.10;;;;;;;;;;5114713;28;20032;-71
2022/11/14 03:11:45;;;;;;;58.35;30.92;;;;;;;;;;5100633;28;20031;-71
2022/11/14 03:14:31;;;;;;;62.13;31.23;;;;;;;;;;5115291;28;20074;-71
2022/11/14 03:17:16;;;;;;;62.35;30.85;;;;;;;;;;5101591;28;20031;-71
2022/11/14 03:20:02;;;;;;;58.40;29.13;;;;;;;;;;5114829;28;20398;-71
2022/11/14 03:22:47;;;;;;;52.90;26.98;;;;;;;;;;5115568;28;20356;-71
2022/11/14 03:25:33;;;;;;;53.22;26.70;;;;;;;;;;5114741;28;20016;-72
2022/11/14 03:28:19;;;;;;;45.25;23.08;;;;;;;;;;5115108;28;20030;-71
2022/11/14 03:31:05;;;;;;;45.70;22.95;;;;;;;;;;5115021;28;20054;-71
2022/11/14 03:33:50;;;;;;;46.17;23.33;;;;;;;;;;5114545;28;20027;-71
2022/11/14 03:36:36;;;;;;;53.10;23.38;;;;;;;;;;5114772;28;20044;-71
2022/11/14 03:39:21;;;;;;;52.28;25.10;;;;;;;;;;5115574;28;20035;-72
2022/11/14 03:42:08;;;;;;;45.60;22.67;;;;;;;;;;5114900;28;20110;-71
2022/11/14 03:44:54;;;;;;;48.30;22.67;;;;;;;;;;5099981;28;20046;-71
2022/11/14 03:47:39;;;;;;;54.15;24.50;;;;;;;;;;5100374;28;20166;-71
2022/11/14 03:50:25;;;;;;;59.03;24.67;;;;;;;;;;5100564;28;20035;-72
2022/11/14 03:53:10;;;;;;;51.35;22.58;;;;;;;;;;5099820;28;20027;-72
2022/11/14 03:55:56;;;;;;;52.17;23.88;;;;;;;;;;5100441;28;20023;-71
2022/11/14 03:58:41;;;;;;;45.22;21.95;;;;;;;;;;5114370;28;20057;-71
2022/11/14 04:01:28;;;;;;;46.20;22.10;;;;;;;;;;5099768;28;20027;-74
2022/11/14 04:04:13;;;;;;;49.80;23.45;;;;;;;;;;5114557;28;20019;-71
2022/11/14 04:06:59;;;;;;;57.00;24.17;;;;;;;;;;5114064;28;20024;-72
2022/11/14 04:09:46;;;;;;;53.85;24.85;;;;;;;;;;5099575;28;20024;-71
2022/11/14 04:12:31;;;;;;;56.22;24.63;;;;;;;;;;5099174;28;20024;-71
2022/11/14 04:15:17;;;;;;;54.75;24.70;;;;;;;;;;5099893;28;20023;-71
2022/11/14 04:18:03;;;;;;;52.33;26.08;;;;;;;;;;5114190;28;20028;-72
2022/11/14 04:20:48;;;;;;;51.75;25.50;;;;;;;;;;5114217;28;20431;-72
2022/11/14 04:23:34;;;;;;;51.10;24.17;;;;;;;;;;5099187;28;20031;-71
2022/11/14 04:26:19;;;;;;;53.15;23.13;;;;;;;;;;5114279;28;20030;-71
2022/11/14 04:29:05;;;;;;;50.25;19.70;;;;;;;;;;5099477;28;20050;-71
2022/11/14 04:31:51;;;;;;;51.42;21.55;;;;;;;;;;5114190;28;20093;-72
2022/11/14 04:34:36;;;;;;;61.47;24.20;;;;;;;;;;5114496;28;20046;-71
2022/11/14 04:37:22;;;;;;;60.15;28.02;;;;;;;;;;5114504;28;20051;-71
2022/11/14 04:40:08;;;;;;;59.65;29.98;;;;;;;;;;5114176;28;20027;-71
2022/11/14 04:42:53;;;;;;;70.75;29.08;;;;;;;;;;5099151;28;20148;-71
2022/11/14 04:45:39;;;;;;;51.38;27.77;;;;;;;;;;5114257;28;20026;-71
2022/11/14 04:48:24;;;;;;;53.72;28.48;;;;;;;;;;5113843;28;20081;-71
2022/11/14 04:51:10;;;;;;;58.33;30.67;;;;;;;;;;5114114;28;20020;-73
2022/11/14 04:53:56;;;;;;;55.00;31.27;;;;;;;;;;5099692;28;20444;-71
2022/11/14 04:56:41;;;;;;;53.75;29.95;;;;;;;;;;5114221;28;20024;-71
2022/11/14 04:59:27;;;;;;;50.70;27.65;;;;;;;;;;5099371;28;20028;-71
2022/11/14 05:02:12;;;;;;;51.40;30.35;;;;;;;;;;5098683;28;20027;-71
2022/11/14 05:04:58;;;;;;;55.13;32.38;;;;;;;;;;5098895;28;20015;-71
2022/11/14 05:07:43;;;;;;;52.33;30.67;;;;;;;;;;5113644;28;20019;-71
2022/11/14 05:10:29;;;;;;;52.30;29.50;;;;;;;;;;5114115;28;20031;-71
2022/11/14 05:13:14;;;;;;;52.08;29.60;;;;;;;;;;5113759;28;20073;-72
2022/11/14 05:16:00;;;;;;;55.78;29.15;;;;;;;;;;5102638;28;20027;-73
2022/11/14 05:18:46;;;;;;;50.50;27.73;;;;;;;;;;5102999;28;20026;-72
2022/11/14 05:21:31;;;;;;;51.30;29.55;;;;;;;;;;5118115;28;20011;-72
2022/11/14 05:24:18;;;;;;;55.17;30.52;;;;;;;;;;5117407;28;20028;-72
2022/11/14 05:27:04;;;;;;;51.50;28.13;;;;;;;;;;5102397;28;20031;-73
2022/11/14 05:29:50;;;;;;;52.28;29.98;;;;;;;;;;5102678;28;20117;-71
2022/11/14 05:32:35;;;;;;;56.40;32.95;;;;;;;;;;5117984;28;20061;-72
2022/11/14 05:35:21;;;;;;;49.58;28.55;;;;;;;;;;5103685;28;20019;-71
2022/11/14 05:38:06;;;;;;;52.53;29.02;;;;;;;;;;5117075;28;20039;-70
2022/11/14 05:40:52;;;;;;;48.42;27.63;;;;;;;;;;5102328;28;20084;-71
2022/11/14 05:43:38;;;;;;;46.75;26.73;;;;;;;;;;5102471;28;20424;-71
2022/11/14 05:46:23;;;;;;;50.67;28.00;;;;;;;;;;5117525;28;20023;-70
2022/11/14 05:49:09;;;;;;;48.80;27.00;;;;;;;;;;5101068;28;20024;-72
2022/11/14 05:51:54;;;;;;;55.75;28.48;;;;;;;;;;5116904;28;20015;-70
2022/11/14 05:54:40;;;;;;;44.25;26.88;;;;;;;;;;5117020;28;20019;-71
2022/11/14 05:57:25;;;;;;;49.90;25.92;;;;;;;;;;5116672;28;20107;-71
2022/11/14 06:00:11;;;;;;;45.30;25.85;;;;;;;;;;5116451;28;20020;-71
2022/11/14 06:02:57;;;;;;;50.25;27.25;;;;;;;;;;5116709;28;20414;-72
2022/11/14 06:05:43;;;;;;;48.05;25.98;;;;;;;;;;5116439;28;20367;-72
2022/11/14 06:08:29;;;;;;;46.10;26.15;;;;;;;;;;5102433;28;20026;-71
2022/11/14 06:11:16;;;;;;;44.55;25.08;;;;;;;;;;5117311;28;20486;-70
2022/11/14 06:14:02;;;;;;;43.30;23.10;;;;;;;;;;5101675;28;20470;-72
2022/11/14 06:16:47;;;;;;;42.28;23.55;;;;;;;;;;5116388;28;20034;-72
2022/11/14 06:19:33;;;;;;;41.33;23.52;;;;;;;;;;5116019;28;20098;-71
2022/11/14 06:22:18;;;;;;;50.60;25.15;;;;;;;;;;5101362;28;20016;-72
2022/11/14 06:25:04;;;;;;;45.55;23.42;;;;;;;;;;5100598;28;20508;-71
2022/11/14 06:27:50;;;;;;;42.00;22.48;;;;;;;;;;5116541;28;20019;-71
2022/11/14 06:30:37;;;;;;;44.22;23.05;;;;;;;;;;5116278;28;20023;-72
2022/11/14 06:33:22;;;;;;;40.90;22.63;;;;;;;;;;5100804;28;20046;-71
2022/11/14 06:36:08;;;;;;;44.42;21.42;;;;;;;;;;5115638;28;20367;-72
2022/11/14 06:38:54;;;;;;;38.67;20.95;;;;;;;;;;5115992;28;20031;-72
2022/11/14 06:41:39;;;;;;;43.90;20.30;;;;;;;;;;5115928;28;20360;-71
2022/11/14 06:44:25;;;;;;;43.42;23.52;;;;;;;;;;5116045;28;20140;-72
2022/11/14 06:47:10;;;;;;;37.97;20.85;;;;;;;;;;5115868;28;20015;-75
2022/11/14 06:49:56;;;;;;;38.45;21.40;;;;;;;;;;5116013;28;20024;-77
2022/11/14 06:52:42;;;;;;;39.17;20.80;;;;;;;;;;5115846;28;20019;-77
2022/11/14 06:55:27;;;;;;;37.00;20.52;;;;;;;;;;5116291;28;20462;-77
2022/11/14 06:58:13;;;;;;;40.85;20.15;;;;;;;;;;5101493;28;20012;-77
2022/11/14 07:01:05;;;;;;;41.10;20.40;;;;;;;;;;5101187;28;20447;-77
2022/11/14 07:03:51;;;;;;;41.13;20.63;;;;;;;;;;5115462;28;20106;-78
2022/11/14 07:06:37;;;;;;;54.90;28.27;;;;;;;;;;5114794;28;20023;-72
2022/11/14 07:09:22;;;;;;;55.00;26.50;;;;;;;;;;5115720;28;20110;-72
2022/11/14 07:12:08;;;;;;;51.42;26.73;;;;;;;;;;5115193;28;20019;-72
2022/11/14 07:14:54;;;;;;;49.67;25.38;;;;;;;;;;5100389;28;20042;-72
2022/11/14 07:17:39;;;;;;;55.13;24.02;;;;;;;;;;5100028;28;20080;-72
2022/11/14 07:20:25;;;;;;;53.55;23.17;;;;;;;;;;5100299;28;20364;-71
2022/11/14 07:23:11;;;;;;;51.30;23.90;;;;;;;;;;5100225;28;20420;-72
2022/11/14 07:26:00;;;;;;;52.65;24.65;;;;;;;;;;5099399;28;20040;-72
2022/11/14 07:28:46;;;;;;;44.22;23.08;;;;;;;;;;5114418;28;20372;-72
2022/11/14 07:31:31;;;;;;;52.47;24.65;;;;;;;;;;5115084;28;20103;-72
2022/11/14 07:34:17;;;;;;;45.83;23.38;;;;;;;;;;5115450;28;20012;-71
2022/11/14 07:37:03;;;;;;;50.40;23.65;;;;;;;;;;5114111;28;20123;-72
2022/11/14 07:39:49;;;;;;;51.72;25.50;;;;;;;;;;5115079;28;20024;-71
2022/11/14 07:42:34;;;;;;;63.03;27.30;;;;;;;;;;5100132;28;20051;-72
2022/11/14 07:45:20;;;;;;;69.32;29.60;;;;;;;;;;5115580;28;20016;-71
2022/11/14 07:48:05;;;;;;;64.80;28.75;;;;;;;;;;5114900;28;20020;-71
2022/11/14 07:50:51;;;;;;;60.53;29.05;;;;;;;;;;5114513;28;20030;-72
2022/11/14 07:53:36;;;;;;;73.45;36.15;;;;;;;;;;5114351;28;20023;-72
2022/11/14 07:56:24;;;;;;;51.55;25.58;;;;;;;;;;5115163;28;20051;-70
2022/11/14 07:59:10;;;;;;;50.40;25.25;;;;;;;;;;5114352;28;20023;-71
2022/11/14 08:01:55;;;;;;;50.15;24.45;;;;;;;;;;5115384;28;20016;-70
2022/11/14 08:04:41;;;;;;;47.60;25.20;;;;;;;;;;5114337;28;20019;-72
2022/11/14 08:07:27;;;;;;;44.65;23.55;;;;;;;;;;5115074;28;20058;-71
2022/11/14 08:10:13;;;;;;;39.60;20.85;;;;;;;;;;5114263;28;20076;-72
2022/11/14 08:13:03;;;;;;;35.55;21.00;;;;;;;;;;5099277;28;20023;-70
2022/11/14 08:15:48;;;;;;;36.17;20.67;;;;;;;;;;5114357;28;20051;-71
2022/11/14 08:18:34;;;;;;;35.22;20.42;;;;;;;;;;5114788;28;20020;-71
2022/11/14 08:21:20;;;;;;;47.53;24.75;;;;;;;;;;5114814;28;20012;-71
2022/11/14 08:24:05;;;;;;;46.45;23.25;;;;;;;;;;5114027;28;20069;-71
2022/11/14 08:26:51;;;;;;;39.75;23.38;;;;;;;;;;5115348;28;20023;-71
2022/11/14 08:29:36;;;;;;;40.83;22.23;;;;;;;;;;5115108;28;20375;-70
2022/11/14 08:32:22;;;;;;;38.75;22.52;;;;;;;;;;5114518;28;20038;-71
2022/11/14 08:35:08;;;;;;;31.30;18.35;;;;;;;;;;5114344;28;20039;-70
2022/11/14 08:37:53;;;;;;;34.05;18.30;;;;;;;;;;5113731;28;20119;-71
2022/11/14 08:40:39;;;;;;;37.40;17.05;;;;;;;;;;5113659;28;20063;-71
2022/11/14 08:43:25;;;;;;;27.23;15.82;;;;;;;;;;5114284;28;20023;-71
2022/11/14 08:46:10;;;;;;;36.83;17.42;;;;;;;;;;5115145;28;20023;-70
2022/11/14 08:48:56;;;;;;;29.98;16.23;;;;;;;;;;5116398;28;20031;-71
2022/11/14 08:51:41;;;;;;;31.38;17.83;;;;;;;;;;5103400;28;20027;-71
2022/11/14 08:54:27;;;;;;;36.45;18.05;;;;;;;;;;5102987;28;20030;-70
2022/11/14 08:57:14;;;;;;;30.95;17.15;;;;;;;;;;5102944;28;20020;-71
2022/11/14 08:59:59;;;;;;;33.63;17.73;;;;;;;;;;5102862;28;20015;-71
2022/11/14 09:02:45;;;;;;;32.58;17.60;;;;;;;;;;5117843;28;20072;-71
2022/11/14 09:05:31;;;;;;;39.13;19.55;;;;;;;;;;5117780;28;20092;-71
2022/11/14 09:08:17;;;;;;;46.67;25.75;;;;;;;;;;5103423;28;20384;-71
2022/11/14 09:11:05;;;;;;;37.15;19.48;;;;;;;;;;5103303;28;20023;-71
2022/11/14 09:13:51;;;;;;;34.15;18.75;;;;;;;;;;5116949;28;20098;-71
2022/11/14 09:16:36;;;;;;;35.85;20.92;;;;;;;;;;5102782;28;20032;-71
2022/11/14 09:19:22;;;;;;;39.92;21.42;;;;;;;;;;5102178;28;20414;-72
2022/11/14 09:22:07;;;;;;;36.80;21.52;;;;;;;;;;5117719;28;20016;-72
2022/11/14 09:24:53;;;;;;;44.65;23.23;;;;;;;;;;5117436;28;20023;-71
2022/11/14 09:27:38;;;;;;;37.70;21.80;;;;;;;;;;5103135;28;20020;-71
2022/11/14 09:30:24;;;;;;;47.08;23.10;;;;;;;;;;5102424;28;20436;-71
2022/11/14 09:33:10;;;;;;;43.13;23.67;;;;;;;;;;5117095;28;20110;-71
2022/11/14 09:35:59;;;;;;;50.90;24.13;;;;;;;;;;5117743;28;20019;-71
2022/11/14 09:38:45;;;;;;;46.55;24.20;;;;;;;;;;5117872;28;20046;-70
2022/11/14 09:41:50;;;;;;;45.22;24.27;;;;;;;;;;5102570;28;20409;-72
2022/11/14 09:44:39;;;;;;;56.10;26.60;;;;;;;;;;5115553;28;20036;-73
2022/11/14 09:47:28;;;;;;;47.10;25.27;;;;;;;;;;5117126;28;20065;-71
2022/11/14 09:50:18;;;;;;;61.67;29.08;;;;;;;;;;5117155;28;20020;-72
2022/11/14 09:53:06;;;;;;;46.72;26.13;;;;;;;;;;5103224;28;20012;-73
2022/11/14 09:55:52;;;;;;;51.05;26.73;;;;;;;;;;5102518;28;20027;-75
2022/11/14 09:58:39;;;;;;;50.85;27.10;;;;;;;;;;5117456;28;20510;-71
2022/11/14 10:01:43;;;;;;;52.17;26.83;;;;;;;;;;5116299;28;20053;-71
2022/11/14 10:04:35;;;;;;;50.10;26.95;;;;;;;;;;5116703;28;20076;-71
2022/11/14 10:07:34;;;;;;;48.75;27.38;;;;;;;;;;5116778;28;20440;-72
2022/11/14 10:10:29;;;;;;;57.92;27.83;;;;;;;;;;5116210;28;20107;-71
2022/11/14 10:13:22;;;;;;;53.90;26.92;;;;;;;;;;5102086;28;20462;-72
2022/11/14 10:16:08;;;;;;;54.15;27.48;;;;;;;;;;5101130;28;20031;-72
2022/11/14 10:18:59;;;;;;;47.45;26.58;;;;;;;;;;5116216;28;20030;-71
2022/11/14 10:22:04;;;;;;;48.08;23.83;;;;;;;;;;5101433;28;20062;-73
2022/11/14 10:25:08;;;;;;;48.20;25.45;;;;;;;;;;5101821;28;20026;-72
2022/11/14 10:27:54;;;;;;;51.03;24.65;;;;;;;;;;5103048;28;20073;-71
2022/11/14 10:30:45;;;;;;;42.35;23.95;;;;;;;;;;5117367;28;20076;-72
2022/11/14 10:33:31;;;;;;;60.63;34.85;;;;;;;;;;5101963;28;20016;-72
2022/11/14 10:36:35;;;;;;;48.88;25.38;;;;;;;;;;5102037;27;20414;-69
2022/11/14 10:39:23;;;;;;;43.17;23.38;;;;;;;;;;5115993;28;20027;-72
2022/11/14 10:42:11;;;;;;;42.50;23.85;;;;;;;;;;5101616;28;20348;-72
2022/11/14 10:45:01;;;;;;;47.22;24.20;;;;;;;;;;5116216;28;20432;-71
2022/11/14 10:47:53;;;;;;;45.22;23.27;;;;;;;;;;5115812;28;20030;-71
2022/11/14 10:50:46;;;;;;;48.92;24.83;;;;;;;;;;5116742;28;20081;-71
2022/11/14 10:53:50;;;;;;;46.03;23.95;;;;;;;;;;5115385;28;20518;-71
2022/11/14 10:56:49;;;;;;;45.35;23.17;;;;;;;;;;5101473;28;20028;-73
2022/11/14 10:59:35;;;;;;;44.40;23.88;;;;;;;;;;5100971;28;20026;-74
2022/11/14 11:02:20;;;;;;;45.58;23.75;;;;;;;;;;5115618;28;20020;-73
2022/11/14 11:05:16;;;;;;;45.30;24.30;;;;;;;;;;5116123;28;20026;-73
2022/11/14 11:11:30;;;;;;;50.60;24.70;;;;;;;;;;5115357;28;20073;-73
2022/11/14 11:14:17;;;;;;;56.20;24.50;;;;;;;;;;5115809;28;20027;-72
2022/11/14 11:17:06;;;;;;;56.42;25.75;;;;;;;;;;5115767;28;20344;-73
2022/11/14 11:19:52;;;;;;;60.03;27.55;;;;;;;;;;5115336;28;20112;-73
2022/11/14 11:22:38;;;;;;;51.55;26.33;;;;;;;;;;5115297;28;20081;-73
2022/11/14 11:25:28;;;;;;;51.63;24.48;;;;;;;;;;5115533;28;20019;-73
2022/11/14 11:28:15;;;;;;;51.08;25.65;;;;;;;;;;5115820;28;20034;-72
2022/11/14 11:31:02;;;;;;;48.47;24.52;;;;;;;;;;5115246;28;20020;-71
2022/11/14 11:33:48;;;;;;;58.13;26.17;;;;;;;;;;5116349;28;20454;-73
2022/11/14 11:36:37;;;;;;;54.35;28.00;;;;;;;;;;5114490;28;20059;-73
2022/11/14 11:39:26;;;;;;;56.58;25.63;;;;;;;;;;5114192;28;20182;-72
2022/11/14 11:42:16;;;;;;;62.45;28.33;;;;;;;;;;5115285;28;20121;-72
2022/11/14 11:45:04;;;;;;;60.88;27.85;;;;;;;;;;5116751;28;20015;-73
2022/11/14 11:47:53;;;;;;;56.03;25.77;;;;;;;;;;5103166;28;20018;-74
2022/11/14 11:50:39;;;;;;;55.45;26.92;;;;;;;;;;5100985;28;20019;-74
2022/11/14 11:53:33;;;;;;;50.33;24.95;;;;;;;;;;5114772;28;20360;-72
2022/11/14 11:56:21;;;;;;;45.22;23.45;;;;;;;;;;5099525;28;20020;-73
2022/11/14 11:59:19;;;;;;;44.67;23.98;;;;;;;;;;5114763;28;20379;-73
2022/11/14 12:02:24;;;;;;;44.42;23.98;;;;;;;;;;5114424;28;20116;-73
2022/11/14 12:05:20;;;;;;;52.03;26.70;;;;;;;;;;5115275;28;20337;-72
2022/11/14 12:08:26;;;;;;;46.63;24.65;;;;;;;;;;5114286;28;20034;-72
2022/11/14 12:11:15;;;;;;;52.35;26.15;;;;;;;;;;5085973;28;20059;-71
2022/11/14 12:14:13;;;;;;;47.95;24.45;;;;;;;;;;5114634;28;20034;-72
2022/11/14 12:17:17;;;;;;;48.65;24.38;;;;;;;;;;5114382;28;20103;-71
2022/11/14 12:20:21;;;;;;;48.40;24.33;;;;;;;;;;5114327;28;20020;-72
2022/11/14 12:23:16;;;;;;;44.05;23.73;;;;;;;;;;5100755;28;20345;-73
2022/11/14 12:26:20;;;;;;;48.22;24.40;;;;;;;;;;5118981;28;20019;-74
2022/11/14 12:29:31;;;;;;;43.72;22.50;;;;;;;;;;5119255;28;20028;-72
2022/11/14 12:32:36;;;;;;;46.10;24.10;;;;;;;;;;5119222;28;20030;-72
2022/11/14 12:35:28;;;;;;;44.53;22.85;;;;;;;;;;5103967;28;20093;-73
2022/11/14 12:38:18;;;;;;;40.28;22.90;;;;;;;;;;5118521;28;20444;-72
2022/11/14 12:41:06;;;;;;;45.97;24.85;;;;;;;;;;5118258;28;20023;-71
2022/11/14 12:43:52;;;;;;;44.92;23.08;;;;;;;;;;5118754;28;20043;-72
2022/11/14 12:47:03;;;;;;;44.33;22.80;;;;;;;;;;5119029;28;20072;-71
2022/11/14 12:49:51;;;;;;;54.22;25.55;;;;;;;;;;5118743;28;20019;-73
2022/11/14 12:52:41;;;;;;;57.50;27.08;;;;;;;;;;5118153;28;20031;-72
2022/11/14 12:55:30;;;;;;;48.30;23.90;;;;;;;;;;5102832;28;20414;-70
2022/11/14 12:58:22;;;;;;;42.15;22.77;;;;;;;;;;5118304;28;20086;-71
2022/11/14 13:01:13;;;;;;;47.63;23.73;;;;;;;;;;5118926;28;20066;-71
2022/11/14 13:04:17;;;;;;;44.85;22.85;;;;;;;;;;5103045;28;20027;-72
2022/11/14 13:07:06;;;;;;;48.45;26.75;;;;;;;;;;5118166;28;20337;-72
2022/11/14 13:10:10;;;;;;;46.03;22.60;;;;;;;;;;5118112;28;20435;-70
2022/11/14 13:21:44;;;;;;;45.35;22.58;;;;;;;;;;5117672;28;20031;-73
2022/11/14 13:22:37;;;;;;;40.45;20.73;;;;;;;;;;5118312;28;20078;-75
2022/11/14 13:25:23;;;;;;;43.80;21.02;;;;;;;;;;5102538;28;20018;-75
2022/11/14 13:28:27;;;;;;;36.28;19.90;;;;;;;;;;5116768;28;20015;-75
2022/11/14 13:31:16;;;;;;;41.55;21.55;;;;;;;;;;5117523;28;20031;-74
2022/11/14 13:34:20;;;;;;;43.45;21.25;;;;;;;;;;5101907;28;20063;-74
2022/11/14 13:37:41;;;;;;;37.25;19.20;;;;;;;;;;5116876;28;20453;-74
2022/11/14 13:40:45;;;;;;;34.53;18.80;;;;;;;;;;5035404;28;20021;-73
2022/11/14 13:43:46;;;;;;;39.65;19.23;;;;;;;;;;5117358;28;20019;-73
2022/11/14 13:46:31;;;;;;;39.35;18.77;;;;;;;;;;5117929;28;20102;-77
2022/11/14 13:49:39;;;;;;;35.58;19.58;;;;;;;;;;5102162;28;20035;-74
2022/11/14 13:52:27;;;;;;;46.92;23.05;;;;;;;;;;5116859;28;20028;-76
2022/11/14 13:55:19;;;;;;;43.63;20.70;;;;;;;;;;5102030;28;20035;-75
2022/11/14 13:58:27;;;;;;;42.75;21.40;;;;;;;;;;5102378;28;20059;-74
2022/11/14 14:01:27;;;;;;;44.58;23.30;;;;;;;;;;5117418;28;20027;-74
2022/11/14 14:04:25;;;;;;;48.33;22.08;;;;;;;;;;5101901;28;20026;-74
2022/11/14 14:07:19;;;;;;;39.88;20.27;;;;;;;;;;5116922;28;20039;-74
2022/11/14 14:10:18;;;;;;;42.28;20.52;;;;;;;;;;5102086;28;20065;-74
2022/11/14 14:13:07;;;;;;;38.95;20.20;;;;;;;;;;5116658;28;20019;-74
2022/11/14 14:16:12;;;;;;;40.05;20.42;;;;;;;;;;5101667;28;20436;-75
2022/11/14 14:19:04;;;;;;;42.97;19.95;;;;;;;;;;5116911;28;20443;-74
2022/11/14 14:21:56;;;;;;;39.00;20.40;;;;;;;;;;5116893;28;20023;-74
2022/11/14 14:24:56;;;;;;;38.97;21.00;;;;;;;;;;5116932;28;20027;-75
2022/11/14 14:28:00;;;;;;;42.15;20.90;;;;;;;;;;5115932;28;20022;-74
2022/11/14 14:31:03;;;;;;;42.05;19.98;;;;;;;;;;5116286;28;20040;-74
2022/11/14 14:33:50;;;;;;;45.25;21.67;;;;;;;;;;5101284;28;20019;-72
2022/11/14 14:36:35;;;;;;;47.17;22.35;;;;;;;;;;5115800;27;20047;-72
2022/11/14 14:39:21;;;;;;;42.60;19.90;;;;;;;;;;5101562;28;20444;-72
2022/11/14 14:42:09;;;;;;;38.58;21.05;;;;;;;;;;5101042;28;20024;-73
2022/11/14 14:44:56;;;;;;;43.75;21.90;;;;;;;;;;5101477;28;20092;-73
2022/11/14 14:47:43;;;;;;;42.70;22.25;;;;;;;;;;5115944;28;20015;-72
2022/11/14 14:50:37;;;;;;;45.03;22.17;;;;;;;;;;5115970;28;20105;-73
2022/11/14 14:53:27;;;;;;;43.78;22.23;;;;;;;;;;5100201;28;20356;-73
2022/11/14 14:56:16;;;;;;;45.05;22.10;;;;;;;;;;5115349;28;20077;-73
2022/11/14 14:59:22;;;;;;;40.75;21.25;;;;;;;;;;5115592;28;20431;-73
2022/11/14 15:02:12;;;;;;;43.58;22.85;;;;;;;;;;5101139;28;20455;-73
2022/11/14 15:04:59;;;;;;;48.00;24.08;;;;;;;;;;5115463;28;20016;-72
2022/11/14 15:07:45;;;;;;;42.42;22.95;;;;;;;;;;5114961;28;20022;-73
2022/11/14 15:10:31;;;;;;;45.80;25.45;;;;;;;;;;5115151;28;20135;-72
2022/11/14 15:13:17;;;;;;;43.15;22.70;;;;;;;;;;5115488;28;20089;-72
2022/11/14 15:16:03;;;;;;;48.22;22.25;;;;;;;;;;5115424;28;20453;-72
2022/11/14 15:18:50;;;;;;;43.78;22.10;;;;;;;;;;5115495;28;20127;-72
2022/11/14 15:21:35;;;;;;;42.83;22.27;;;;;;;;;;5114993;28;20024;-73
2022/11/14 15:24:22;;;;;;;42.80;21.25;;;;;;;;;;5100487;28;20022;-72
2022/11/14 15:27:12;;;;;;;47.33;23.42;;;;;;;;;;5115423;28;20019;-72
2022/11/14 15:30:00;;;;;;;38.63;21.38;;;;;;;;;;5115296;28;20019;-72
2022/11/14 15:32:50;;;;;;;48.05;22.13;;;;;;;;;;5115100;28;20050;-72
2022/11/14 15:35:37;;;;;;;49.85;22.60;;;;;;;;;;5114630;28;20027;-73
2022/11/14 15:38:22;;;;;;;47.97;22.35;;;;;;;;;;5099784;28;20434;-73
2022/11/14 15:41:19;;;;;;;41.47;21.60;;;;;;;;;;5099799;28;20020;-73
2022/11/14 15:44:04;;;;;;;44.63;22.42;;;;;;;;;;5114659;28;20492;-72
2022/11/14 15:46:50;;;;;;;51.00;24.38;;;;;;;;;;5115225;28;20151;-72
2022/11/14 15:49:37;;;;;;;49.15;23.67;;;;;;;;;;5114841;28;20023;-72
2022/11/14 15:52:31;;;;;;;47.47;22.52;;;;;;;;;;5114406;28;20031;-73
2022/11/14 15:55:21;;;;;;;46.55;22.83;;;;;;;;;;5115301;28;20023;-71
2022/11/14 15:58:07;;;;;;;40.90;21.85;;;;;;;;;;5113980;28;20074;-72
2022/11/14 16:00:56;;;;;;;42.35;22.05;;;;;;;;;;5115151;28;20043;-73
2022/11/14 16:03:47;;;;;;;39.50;21.02;;;;;;;;;;5114765;28;20103;-72
2022/11/14 16:06:32;;;;;;;45.75;23.23;;;;;;;;;;5115615;28;20020;-73
2022/11/14 16:09:19;;;;;;;47.08;22.00;;;;;;;;;;5115460;28;20034;-72
2022/11/14 16:12:05;;;;;;;43.53;21.23;;;;;;;;;;5120243;28;20023;-73
2022/11/14 16:14:51;;;;;;;38.30;20.13;;;;;;;;;;5102080;28;20102;-74
2022/11/14 16:17:38;;;;;;;44.22;21.25;;;;;;;;;;5115127;28;20020;-74
2022/11/14 16:20:27;;;;;;;44.13;21.60;;;;;;;;;;5114473;28;20034;-73
2022/11/14 16:23:13;;;;;;;46.33;22.55;;;;;;;;;;5099465;28;20093;-73
2022/11/14 16:25:58;;;;;;;41.08;21.25;;;;;;;;;;5115417;28;20034;-74
2022/11/14 16:28:44;;;;;;;44.20;20.73;;;;;;;;;;5115039;28;20098;-73